createdAt,value
2022-07-28T00:01:50.207Z,14.65
2022-07-28T00:04:18.259Z,14.63
2022-07-28T00:06:46.319Z,14.60
2022-07-28T00:09:14.594Z,14.58
2022-07-28T00:11:54.425Z,14.56
2022-07-28T00:14:24.355Z,14.54
2022-07-28T00:16:52.659Z,14.50
2022-07-28T00:19:20.835Z,14.47
2022-07-28T00:21:48.920Z,14.44
2022-07-28T00:24:17.342Z,14.43
2022-07-28T00:26:46.785Z,14.43
2022-07-28T00:29:15.243Z,14.44
2022-07-28T00:31:43.433Z,14.45
2022-07-28T00:34:12.595Z,14.47
2022-07-28T00:36:41.106Z,14.47
2022-07-28T00:39:09.390Z,14.45
2022-07-28T00:41:37.515Z,14.41
2022-07-28T00:44:08.023Z,14.35
2022-07-28T00:46:36.971Z,14.29
2022-07-28T00:49:05.949Z,14.24
2022-07-28T00:51:34.430Z,14.19
2022-07-28T00:54:04.519Z,14.13
2022-07-28T00:56:34.672Z,14.08
2022-07-28T00:59:02.697Z,14.04
2022-07-28T01:01:30.726Z,14.00
2022-07-28T01:04:02.347Z,13.98
2022-07-28T01:07:03.424Z,13.97
2022-07-28T01:09:50.039Z,13.92
2022-07-28T01:12:57.033Z,13.87
2022-07-28T01:15:33.574Z,13.82
2022-07-28T01:18:17.226Z,13.77
2022-07-28T01:20:55.559Z,13.72
2022-07-28T01:23:32.257Z,13.65
2022-07-28T01:26:24.336Z,13.60
2022-07-28T01:29:16.522Z,13.55
2022-07-28T01:32:08.755Z,13.47
2022-07-28T01:34:52.309Z,13.41
2022-07-28T01:37:25.856Z,13.33
2022-07-28T01:39:59.166Z,13.26
2022-07-28T01:42:37.262Z,13.19
2022-07-28T01:45:08.340Z,13.12
2022-07-28T01:47:37.731Z,13.07
2022-07-28T01:50:10.471Z,13.00
2022-07-28T01:52:42.050Z,12.94
2022-07-28T01:55:14.031Z,12.89
2022-07-28T01:57:44.475Z,12.85
2022-07-28T02:00:14.339Z,12.79
2022-07-28T02:02:46.286Z,12.71
2022-07-28T02:05:19.285Z,12.64
2022-07-28T02:07:51.631Z,12.59
2022-07-28T02:10:22.074Z,12.53
2022-07-28T02:12:53.328Z,12.47
2022-07-28T02:15:22.545Z,12.41
2022-07-28T02:17:53.756Z,12.36
2022-07-28T02:20:23.630Z,12.32
2022-07-28T02:22:54.460Z,12.28
2022-07-28T02:25:22.704Z,12.26
2022-07-28T02:28:05.611Z,12.23
2022-07-28T02:30:48.160Z,12.19
2022-07-28T02:33:57.963Z,12.14
2022-07-28T02:36:16.199Z,12.11
2022-07-28T02:38:51.967Z,12.08
2022-07-28T02:41:27.509Z,12.03
2022-07-28T02:44:00.158Z,11.98
2022-07-28T02:46:38.434Z,11.92
2022-07-28T02:49:12.501Z,11.86
2022-07-28T02:51:43.416Z,11.83
2022-07-28T02:54:13.710Z,11.80
2022-07-28T02:56:42.457Z,11.77
2022-07-28T02:59:23.735Z,11.74
2022-07-28T03:01:53.132Z,11.72
2022-07-28T03:04:43.515Z,11.71
2022-07-28T03:07:11.873Z,11.69
2022-07-28T03:09:42.576Z,11.67
2022-07-28T03:12:11.667Z,11.64
2022-07-28T03:14:40.250Z,11.64
2022-07-28T03:17:09.457Z,11.65
2022-07-28T03:19:37.636Z,11.65
2022-07-28T03:22:10.370Z,11.66
2022-07-28T03:24:44.584Z,11.68
2022-07-28T03:27:33.295Z,11.73
2022-07-28T03:30:07.259Z,11.77
2022-07-28T03:32:38.767Z,11.80
2022-07-28T03:35:07.186Z,11.84
2022-07-28T03:38:06.399Z,11.91
2022-07-28T03:40:37.954Z,11.98
2022-07-28T03:43:08.918Z,12.02
2022-07-28T03:45:41.081Z,12.07
2022-07-28T03:48:10.404Z,12.14
2022-07-28T03:50:38.475Z,12.21
2022-07-28T03:53:14.077Z,12.27
2022-07-28T03:55:42.156Z,12.32
2022-07-28T03:58:10.116Z,12.38
2022-07-28T04:00:38.179Z,12.44
2022-07-28T04:03:42.322Z,12.51
2022-07-28T04:05:58.028Z,12.60
2022-07-28T04:08:26.038Z,12.67
2022-07-28T04:10:53.991Z,12.75
2022-07-28T04:13:22.005Z,12.83
2022-07-28T04:15:50.037Z,12.90
2022-07-28T04:18:18.821Z,12.98
2022-07-28T04:20:46.937Z,13.07
2022-07-28T04:23:14.799Z,13.15
2022-07-28T04:25:42.906Z,13.24
2022-07-28T04:28:10.970Z,13.33
2022-07-28T04:30:43.896Z,13.45
2022-07-28T04:33:13.032Z,13.57
2022-07-28T04:35:41.055Z,13.70
2022-07-28T04:38:09.183Z,13.81
2022-07-28T04:40:37.274Z,13.92
2022-07-28T04:43:06.217Z,14.05
2022-07-28T04:45:34.572Z,14.18
2022-07-28T04:48:02.891Z,14.30
2022-07-28T04:50:30.967Z,14.42
2022-07-28T04:52:59.529Z,14.55
2022-07-28T04:55:27.751Z,14.65
2022-07-28T04:57:55.851Z,14.78
2022-07-28T05:00:24.018Z,14.90
2022-07-28T05:05:44.076Z,15.17
2022-07-28T05:08:17.082Z,15.29
2022-07-28T05:10:46.001Z,15.42
2022-07-28T05:13:13.927Z,15.57
2022-07-28T05:15:49.784Z,15.71
2022-07-28T05:18:17.839Z,15.86
2022-07-28T05:20:45.758Z,16.01
2022-07-28T05:23:13.672Z,16.15
2022-07-28T05:25:41.591Z,16.31
2022-07-28T05:28:09.592Z,16.46
2022-07-28T05:30:38.565Z,16.60
2022-07-28T05:33:06.449Z,16.76
2022-07-28T05:35:34.452Z,16.93
2022-07-28T05:38:03.670Z,17.06
2022-07-28T05:40:33.645Z,17.21
2022-07-28T05:43:01.587Z,17.36
2022-07-28T05:45:29.688Z,17.53
2022-07-28T05:47:57.593Z,17.70
2022-07-28T05:50:26.695Z,17.93
2022-07-28T05:52:54.778Z,18.28
2022-07-28T05:55:22.943Z,18.97
2022-07-28T05:57:51.329Z,20.01
2022-07-28T06:00:21.247Z,20.89
2022-07-28T06:02:50.697Z,21.58
2022-07-28T06:05:21.606Z,22.02
2022-07-28T06:07:51.804Z,22.34
2022-07-28T06:10:25.372Z,22.82
2022-07-28T06:12:55.346Z,23.17
2022-07-28T06:15:25.919Z,23.59
2022-07-28T06:17:58.206Z,23.84
2022-07-28T06:20:28.874Z,23.97
2022-07-28T06:22:56.851Z,24.11
2022-07-28T06:25:27.736Z,24.28
2022-07-28T06:27:57.817Z,24.48
2022-07-28T06:30:27.432Z,24.63
2022-07-28T06:32:56.765Z,24.59
2022-07-28T06:35:27.944Z,24.49
2022-07-28T06:37:56.071Z,24.16
2022-07-28T06:40:24.721Z,24.27
2022-07-28T06:42:52.697Z,24.28
2022-07-28T06:45:21.806Z,24.42
2022-07-28T06:47:50.946Z,24.47
2022-07-28T06:50:26.510Z,24.70
2022-07-28T06:52:59.106Z,24.66
2022-07-28T06:55:31.325Z,23.97
2022-07-28T06:58:06.371Z,23.54
2022-07-28T07:00:34.604Z,23.97
2022-07-28T07:03:09.616Z,24.24
2022-07-28T07:05:40.662Z,24.67
2022-07-28T07:08:08.682Z,24.74
2022-07-28T07:10:36.670Z,24.43
2022-07-28T07:13:05.059Z,24.36
2022-07-28T07:15:34.959Z,24.36
2022-07-28T07:18:07.709Z,24.62
2022-07-28T07:20:36.480Z,24.37
2022-07-28T07:23:07.619Z,24.30
2022-07-28T07:25:41.533Z,24.74
2022-07-28T07:28:11.967Z,25.14
2022-07-28T07:30:40.316Z,24.99
2022-07-28T07:33:10.906Z,24.87
2022-07-28T07:35:39.101Z,25.19
2022-07-28T07:38:07.466Z,25.53
2022-07-28T07:40:35.750Z,25.92
2022-07-28T07:43:04.700Z,26.18
2022-07-28T07:45:34.517Z,26.03
2022-07-28T07:48:03.909Z,26.04
2022-07-28T07:50:38.906Z,26.32
2022-07-28T07:53:07.156Z,26.77
2022-07-28T07:55:37.961Z,27.06
2022-07-28T07:58:06.546Z,26.95
2022-07-28T08:00:34.675Z,26.43
2022-07-28T08:03:02.835Z,25.87
2022-07-28T08:05:35.511Z,25.79
2022-07-28T08:08:05.687Z,26.05
2022-07-28T08:10:37.921Z,26.63
2022-07-28T08:13:08.001Z,27.08
2022-07-28T08:15:36.057Z,27.46
2022-07-28T08:18:04.890Z,27.55
2022-07-28T08:20:32.989Z,27.45
2022-07-28T08:23:01.371Z,27.35
2022-07-28T08:25:29.290Z,27.39
2022-07-28T08:27:57.238Z,27.60
2022-07-28T08:30:30.265Z,27.44
2022-07-28T08:33:02.534Z,27.11
2022-07-28T08:35:33.501Z,26.94
2022-07-28T08:38:04.597Z,26.87
2022-07-28T08:40:32.995Z,26.60
2022-07-28T08:43:21.217Z,27.27
2022-07-28T08:45:52.504Z,27.91
2022-07-28T08:48:23.730Z,28.00
2022-07-28T08:50:54.088Z,28.35
2022-07-28T08:53:30.697Z,28.59
2022-07-28T08:56:05.851Z,28.32
2022-07-28T08:58:36.802Z,28.36
2022-07-28T09:01:08.645Z,28.25
2022-07-28T09:03:39.277Z,28.06
2022-07-28T09:06:08.470Z,27.64
2022-07-28T09:08:37.340Z,27.55
2022-07-28T09:11:07.027Z,27.67
2022-07-28T09:13:36.545Z,28.19
2022-07-28T09:16:06.923Z,28.82
2022-07-28T09:18:35.208Z,29.63
2022-07-28T09:21:03.221Z,29.43
2022-07-28T09:23:48.944Z,28.45
2022-07-28T09:26:18.661Z,28.79
2022-07-28T09:28:59.279Z,29.19
2022-07-28T09:31:29.408Z,28.81
2022-07-28T09:34:02.654Z,27.77
2022-07-28T09:36:39.202Z,26.85
2022-07-28T09:39:08.403Z,26.87
2022-07-28T09:41:53.386Z,27.60
2022-07-28T09:44:23.375Z,28.15
2022-07-28T09:46:51.512Z,28.15
2022-07-28T09:49:22.887Z,28.17
2022-07-28T09:52:02.750Z,28.67
2022-07-28T09:54:30.756Z,29.22
2022-07-28T09:56:59.416Z,29.41
2022-07-28T09:59:46.194Z,29.21
2022-07-28T10:02:24.960Z,28.92
2022-07-28T10:04:54.629Z,29.04
2022-07-28T10:07:22.775Z,28.95
2022-07-28T10:10:01.016Z,28.75
2022-07-28T10:12:31.599Z,28.73
2022-07-28T10:15:34.839Z,29.44
2022-07-28T10:18:03.728Z,30.08
2022-07-28T10:20:34.760Z,30.51
2022-07-28T10:23:09.566Z,30.91
2022-07-28T10:25:40.597Z,31.11
2022-07-28T10:28:12.069Z,31.48
2022-07-28T10:30:41.448Z,32.15
2022-07-28T10:33:15.186Z,32.46
2022-07-28T10:35:54.769Z,32.74
2022-07-28T10:38:28.806Z,33.12
2022-07-28T10:40:59.821Z,33.61
2022-07-28T10:43:32.849Z,34.34
2022-07-28T10:46:06.833Z,34.02
2022-07-28T10:48:39.251Z,32.58
2022-07-28T10:51:07.672Z,31.85
2022-07-28T10:53:39.512Z,32.54
2022-07-28T10:56:18.869Z,32.82
2022-07-28T10:59:04.696Z,32.26
2022-07-28T11:01:51.913Z,31.93
2022-07-28T11:04:52.023Z,32.65
2022-07-28T11:07:21.177Z,32.81
2022-07-28T11:09:50.135Z,32.96
2022-07-28T11:12:48.885Z,32.48
2022-07-28T11:15:38.101Z,32.13
2022-07-28T11:18:10.840Z,31.22
2022-07-28T11:20:51.625Z,31.59
2022-07-28T11:23:58.369Z,32.87
2022-07-28T11:26:31.102Z,34.20
2022-07-28T11:29:06.016Z,34.64
2022-07-28T11:31:48.784Z,34.63
2022-07-28T11:34:23.707Z,34.48
2022-07-28T11:37:01.621Z,34.43
2022-07-28T11:39:43.867Z,34.52
2022-07-28T11:42:29.481Z,33.46
2022-07-28T11:45:23.125Z,32.87
2022-07-28T11:48:17.103Z,33.81
2022-07-28T11:51:14.328Z,34.98
2022-07-28T11:53:48.494Z,34.72
2022-07-28T11:56:24.472Z,33.97
2022-07-28T11:59:07.230Z,33.91
2022-07-28T12:01:37.094Z,34.26
2022-07-28T12:04:19.099Z,34.99
2022-07-28T12:06:51.660Z,35.43
2022-07-28T12:09:25.617Z,35.37
2022-07-28T12:11:56.098Z,35.86
2022-07-28T12:14:24.401Z,36.64
2022-07-28T12:16:53.263Z,35.87
2022-07-28T12:19:21.879Z,35.27
2022-07-28T12:21:55.354Z,35.20
2022-07-28T12:24:29.617Z,35.72
2022-07-28T12:27:00.564Z,36.90
2022-07-28T12:29:32.219Z,37.65
2022-07-28T12:32:06.722Z,37.40
2022-07-28T12:34:35.698Z,37.32
2022-07-28T12:37:12.592Z,37.80
2022-07-28T12:39:43.023Z,38.31
2022-07-28T12:42:12.864Z,38.44
2022-07-28T12:44:44.081Z,38.11
2022-07-28T12:47:14.391Z,36.75
2022-07-28T12:49:44.829Z,36.61
2022-07-28T12:52:22.311Z,37.09
2022-07-28T12:54:55.226Z,37.26
2022-07-28T12:57:50.538Z,37.06
2022-07-28T13:00:31.906Z,36.26
2022-07-28T13:03:19.581Z,35.53
2022-07-28T13:06:03.425Z,35.76
2022-07-28T13:08:44.008Z,36.36
2022-07-28T13:14:12.946Z,35.49
2022-07-28T13:16:41.206Z,35.07
2022-07-28T13:19:21.538Z,34.49
2022-07-28T13:22:01.690Z,34.67
2022-07-28T13:24:31.593Z,35.34
2022-07-28T13:27:01.754Z,35.96
2022-07-28T13:29:34.889Z,35.79
2022-07-28T13:32:03.017Z,35.22
2022-07-28T13:34:31.110Z,34.80
2022-07-28T13:36:59.226Z,35.17
2022-07-28T13:39:27.995Z,35.81
2022-07-28T13:41:58.178Z,36.26
2022-07-28T13:44:28.878Z,35.93
2022-07-28T13:46:59.736Z,35.40
2022-07-28T13:49:33.297Z,35.42
2022-07-28T13:52:02.416Z,35.31
2022-07-28T13:54:30.417Z,34.83
2022-07-28T13:57:14.216Z,34.63
2022-07-28T13:59:43.829Z,34.37
2022-07-28T14:02:15.159Z,34.50
2022-07-28T14:04:49.002Z,34.99
2022-07-28T14:07:20.826Z,35.17
2022-07-28T14:09:52.805Z,35.59
2022-07-28T14:12:22.490Z,36.01
2022-07-28T14:14:53.084Z,36.11
2022-07-28T14:17:43.718Z,35.86
2022-07-28T14:20:12.302Z,35.78
2022-07-28T14:22:40.398Z,35.47
2022-07-28T14:25:09.000Z,34.86
2022-07-28T14:27:38.031Z,34.69
2022-07-28T14:30:07.047Z,34.66
2022-07-28T14:32:38.758Z,34.76
2022-07-28T14:35:07.411Z,35.13
2022-07-28T14:37:55.031Z,35.33
2022-07-28T14:40:24.187Z,35.36
2022-07-28T14:42:52.099Z,35.50
2022-07-28T14:45:20.045Z,35.57
2022-07-28T14:47:47.966Z,34.83
2022-07-28T14:50:15.951Z,33.43
2022-07-28T14:52:45.053Z,32.24
2022-07-28T14:55:13.834Z,31.22
2022-07-28T14:57:50.231Z,30.87
2022-07-28T15:00:22.206Z,31.18
2022-07-28T15:02:51.953Z,31.50
2022-07-28T15:05:21.111Z,31.31
2022-07-28T15:07:52.357Z,31.78
2022-07-28T15:10:21.548Z,32.62
2022-07-28T15:12:50.919Z,33.59
2022-07-28T15:15:21.388Z,34.13
2022-07-28T15:17:49.241Z,34.08
2022-07-28T15:20:17.227Z,33.78
2022-07-28T15:22:45.116Z,33.90
2022-07-28T15:25:13.099Z,34.52
2022-07-28T15:27:45.625Z,35.56
2022-07-28T15:30:14.395Z,36.75
2022-07-28T15:32:54.591Z,37.20
2022-07-28T15:35:26.195Z,37.97
2022-07-28T15:37:55.068Z,38.61
2022-07-28T15:40:23.490Z,38.50
2022-07-28T15:42:53.232Z,38.29
2022-07-28T15:45:21.197Z,37.82
2022-07-28T15:47:49.222Z,36.99
2022-07-28T15:50:17.335Z,36.22
2022-07-28T15:52:45.396Z,35.24
2022-07-28T15:55:13.436Z,34.08
2022-07-28T15:57:41.302Z,33.04
2022-07-28T16:00:09.871Z,32.21
2022-07-28T16:02:37.775Z,31.51
2022-07-28T16:05:06.089Z,30.95
2022-07-28T16:07:35.361Z,30.44
2022-07-28T16:10:04.711Z,30.00
2022-07-28T16:12:33.646Z,29.71
2022-07-28T16:15:02.029Z,29.48
2022-07-28T16:17:30.022Z,29.20
2022-07-28T16:20:02.426Z,28.98
2022-07-28T16:22:30.783Z,28.87
2022-07-28T16:24:58.662Z,28.71
2022-07-28T16:27:26.540Z,28.46
2022-07-28T16:29:54.793Z,28.26
2022-07-28T16:32:22.802Z,28.13
2022-07-28T16:34:54.964Z,28.04
2022-07-28T16:37:22.961Z,27.96
2022-07-28T16:39:51.041Z,27.89
2022-07-28T16:42:19.036Z,27.84
2022-07-28T16:44:47.575Z,27.84
2022-07-28T16:47:16.009Z,27.83
2022-07-28T16:49:46.199Z,27.73
2022-07-28T16:52:15.519Z,27.65
2022-07-28T16:54:43.767Z,27.59
2022-07-28T16:57:12.557Z,27.45
2022-07-28T16:59:48.732Z,27.35
2022-07-28T17:02:19.441Z,27.26
2022-07-28T17:04:47.889Z,27.16
2022-07-28T17:07:15.898Z,27.07
2022-07-28T17:09:44.645Z,26.98
2022-07-28T17:12:13.470Z,26.90
2022-07-28T17:14:41.438Z,26.83
2022-07-28T17:17:09.601Z,26.77
2022-07-28T17:19:41.996Z,26.65
2022-07-28T17:22:15.264Z,26.51
2022-07-28T17:24:43.252Z,26.39
2022-07-28T17:29:59.066Z,26.12
2022-07-28T17:32:26.976Z,25.96
2022-07-28T17:34:55.770Z,25.82
2022-07-28T17:37:23.605Z,25.70
2022-07-28T17:39:51.741Z,25.58
2022-07-28T17:42:19.839Z,25.43
2022-07-28T17:44:48.883Z,25.29
2022-07-28T17:47:17.105Z,25.17
2022-07-28T17:49:45.726Z,25.05
2022-07-28T17:52:13.711Z,24.90
2022-07-28T17:55:00.718Z,24.77
2022-07-28T17:57:31.018Z,24.62
2022-07-28T18:00:06.864Z,24.42
2022-07-28T18:02:34.780Z,24.26
2022-07-28T18:05:02.704Z,24.07
2022-07-28T18:07:30.762Z,23.88
2022-07-28T18:10:24.532Z,23.70
2022-07-28T18:12:52.948Z,23.54
2022-07-28T18:15:20.854Z,23.38
2022-07-28T18:17:55.230Z,23.18
2022-07-28T18:20:24.483Z,22.96
2022-07-28T18:22:52.477Z,22.75
2022-07-28T18:25:21.355Z,22.57
2022-07-28T18:27:49.426Z,22.42
2022-07-28T18:30:18.215Z,22.30
2022-07-28T18:32:46.181Z,22.14
2022-07-28T18:35:14.945Z,21.99
2022-07-28T18:37:45.962Z,21.86
2022-07-28T18:40:16.403Z,21.75
2022-07-28T18:42:46.452Z,21.65
2022-07-28T18:45:15.503Z,21.52
2022-07-28T18:47:46.209Z,21.35
2022-07-28T18:50:30.462Z,21.21
2022-07-28T18:53:00.090Z,21.07
2022-07-28T18:55:28.147Z,20.93
2022-07-28T18:57:56.378Z,20.80
2022-07-28T19:00:24.432Z,20.69
2022-07-28T19:02:52.864Z,20.60
2022-07-28T19:05:20.910Z,20.50
2022-07-28T19:07:48.877Z,20.37
2022-07-28T19:10:16.821Z,20.24
2022-07-28T19:12:47.088Z,20.16
2022-07-28T19:15:15.051Z,20.07
2022-07-28T19:17:42.976Z,19.98
2022-07-28T19:20:12.122Z,19.88
2022-07-28T19:22:40.569Z,19.79
2022-07-28T19:25:09.031Z,19.68
2022-07-28T19:27:37.426Z,19.62
2022-07-28T19:30:07.582Z,19.56
2022-07-28T19:32:35.859Z,19.51
2022-07-28T19:35:04.286Z,19.47
2022-07-28T19:37:32.463Z,19.44
2022-07-28T19:40:00.254Z,19.40
2022-07-28T19:42:30.524Z,19.30
2022-07-28T19:44:58.466Z,19.19
2022-07-28T19:47:26.438Z,19.10
2022-07-28T19:49:54.346Z,19.04
2022-07-28T19:52:24.157Z,19.02
2022-07-28T19:54:52.876Z,19.01
2022-07-28T19:57:23.298Z,18.97
2022-07-28T19:59:51.164Z,18.91
2022-07-28T20:02:19.175Z,18.83
2022-07-28T20:04:47.176Z,18.72
2022-07-28T20:07:15.309Z,18.60
2022-07-28T20:09:43.218Z,18.50
2022-07-28T20:12:11.256Z,18.41
2022-07-28T20:14:39.186Z,18.36
2022-07-28T20:17:07.494Z,18.30
2022-07-28T20:19:35.527Z,18.23
2022-07-28T20:22:03.500Z,18.20
2022-07-28T20:24:31.433Z,18.19
2022-07-28T20:27:01.207Z,18.16
2022-07-28T20:29:29.086Z,18.10
2022-07-28T20:31:56.978Z,18.03
2022-07-28T20:34:24.898Z,17.95
2022-07-28T20:36:54.506Z,17.90
2022-07-28T20:39:43.749Z,17.84
2022-07-28T20:42:10.847Z,17.73
2022-07-28T20:44:38.969Z,17.61
2022-07-28T20:47:07.053Z,17.53
2022-07-28T20:49:34.976Z,17.47
2022-07-28T20:52:03.671Z,17.41
2022-07-28T20:54:32.476Z,17.39
2022-07-28T20:57:00.555Z,17.37
2022-07-28T20:59:28.474Z,17.33
2022-07-28T21:01:56.908Z,17.30
2022-07-28T21:04:26.663Z,17.24
2022-07-28T21:07:01.740Z,17.19
2022-07-28T21:09:30.308Z,17.14
2022-07-28T21:11:58.215Z,17.14
2022-07-28T21:14:26.204Z,17.13
2022-07-28T21:16:55.114Z,17.10
2022-07-28T21:19:23.081Z,17.04
2022-07-28T21:21:51.270Z,16.98
2022-07-28T21:24:19.403Z,16.90
2022-07-28T21:26:49.886Z,16.80
2022-07-28T21:32:04.100Z,16.56
2022-07-28T21:34:34.989Z,16.53
2022-07-28T21:37:06.915Z,16.53
2022-07-28T21:39:36.045Z,16.52
2022-07-28T21:42:07.780Z,16.48
2022-07-28T21:44:37.607Z,16.45
2022-07-28T21:47:05.912Z,16.39
2022-07-28T21:49:34.074Z,16.31
2022-07-28T21:52:02.091Z,16.24
2022-07-28T21:54:30.305Z,16.16
2022-07-28T21:56:58.306Z,16.09
2022-07-28T21:59:26.300Z,16.08
2022-07-28T22:01:54.233Z,16.08
2022-07-28T22:04:22.389Z,16.10
2022-07-28T22:06:50.839Z,16.10
2022-07-28T22:09:18.746Z,16.09
2022-07-28T22:11:46.590Z,16.05
2022-07-28T22:14:14.750Z,16.03
2022-07-28T22:16:42.885Z,16.00
2022-07-28T22:19:12.358Z,15.97
2022-07-28T22:21:40.275Z,15.94
2022-07-28T22:24:08.916Z,15.91
2022-07-28T22:26:37.061Z,15.89
2022-07-28T22:29:05.286Z,15.88
2022-07-28T22:31:33.273Z,15.86
2022-07-28T22:34:01.408Z,15.84
2022-07-28T22:36:29.416Z,15.82
2022-07-28T22:38:57.412Z,15.79
2022-07-28T22:41:25.579Z,15.76
2022-07-28T22:43:54.686Z,15.73
2022-07-28T22:46:22.808Z,15.71
2022-07-28T22:48:51.040Z,15.69
2022-07-28T22:51:19.089Z,15.68
2022-07-28T22:53:46.980Z,15.67
2022-07-28T22:56:15.009Z,15.65
2022-07-28T22:58:43.180Z,15.68
2022-07-28T23:01:11.370Z,15.69
2022-07-28T23:09:26.981Z,15.67
2022-07-28T23:11:55.599Z,15.62
2022-07-28T23:14:24.333Z,15.57
2022-07-28T23:16:52.127Z,15.54
2022-07-28T23:19:20.042Z,15.50
2022-07-28T23:21:48.036Z,15.45
2022-07-28T23:24:16.462Z,15.41
2022-07-28T23:26:44.989Z,15.34
2022-07-28T23:29:12.946Z,15.30
2022-07-28T23:31:40.978Z,15.25
2022-07-28T23:34:09.157Z,15.24
2022-07-28T23:36:37.104Z,15.24
2022-07-28T23:39:05.021Z,15.21
2022-07-28T23:41:32.943Z,15.16
2022-07-28T23:44:00.857Z,15.11
2022-07-28T23:46:28.905Z,15.08
2022-07-28T23:48:56.847Z,15.06
2022-07-28T23:51:46.894Z,15.07
2022-07-28T23:54:14.581Z,15.06
2022-07-28T23:56:43.612Z,15.04
2022-07-28T23:59:13.992Z,15.01
